sensor_id;sensor_type;location;lat;lon;timestamp;temperature;humidity
32201;DHT22;18701;45.588;5.288;2023-03-17T00:01:07;12.10;95.50
32201;DHT22;18701;45.588;5.288;2023-03-17T00:03:37;12.10;95.10
32201;DHT22;18701;45.588;5.288;2023-03-17T00:06:03;12.00;95.50
32201;DHT22;18701;45.588;5.288;2023-03-17T00:08:34;12.10;95.60
32201;DHT22;18701;45.588;5.288;2023-03-17T00:11:00;12.10;95.70
32201;DHT22;18701;45.588;5.288;2023-03-17T00:13:27;12.10;95.80
32201;DHT22;18701;45.588;5.288;2023-03-17T00:15:55;12.20;96.10
32201;DHT22;18701;45.588;5.288;2023-03-17T00:18:23;12.30;95.80
32201;DHT22;18701;45.588;5.288;2023-03-17T00:20:48;12.10;96.10
32201;DHT22;18701;45.588;5.288;2023-03-17T00:23:17;11.90;96.00
32201;DHT22;18701;45.588;5.288;2023-03-17T00:25:44;11.90;95.90
32201;DHT22;18701;45.588;5.288;2023-03-17T00:28:15;11.90;96.20
32201;DHT22;18701;45.588;5.288;2023-03-17T00:30:41;12.00;95.70
32201;DHT22;18701;45.588;5.288;2023-03-17T00:33:09;11.90;96.00
32201;DHT22;18701;45.588;5.288;2023-03-17T00:35:35;11.80;95.90
32201;DHT22;18701;45.588;5.288;2023-03-17T00:38:00;11.90;95.90
32201;DHT22;18701;45.588;5.288;2023-03-17T00:40:28;11.80;95.90
32201;DHT22;18701;45.588;5.288;2023-03-17T00:42:56;11.80;95.70
32201;DHT22;18701;45.588;5.288;2023-03-17T00:45:23;11.80;95.80
32201;DHT22;18701;45.588;5.288;2023-03-17T00:47:50;11.70;95.60
32201;DHT22;18701;45.588;5.288;2023-03-17T00:50:19;11.80;95.40
32201;DHT22;18701;45.588;5.288;2023-03-17T00:52:48;11.80;95.20
32201;DHT22;18701;45.588;5.288;2023-03-17T00:55:15;11.80;95.20
32201;DHT22;18701;45.588;5.288;2023-03-17T00:57:41;11.70;95.30
32201;DHT22;18701;45.588;5.288;2023-03-17T01:00:20;11.70;95.00
32201;DHT22;18701;45.588;5.288;2023-03-17T01:02:47;11.70;95.00
32201;DHT22;18701;45.588;5.288;2023-03-17T01:05:13;11.70;94.80
32201;DHT22;18701;45.588;5.288;2023-03-17T01:07:41;11.60;94.80
32201;DHT22;18701;45.588;5.288;2023-03-17T01:10:17;11.70;94.30
32201;DHT22;18701;45.588;5.288;2023-03-17T01:12:43;11.80;93.90
32201;DHT22;18701;45.588;5.288;2023-03-17T01:15:11;11.80;93.80
32201;DHT22;18701;45.588;5.288;2023-03-17T01:17:38;11.80;93.40
32201;DHT22;18701;45.588;5.288;2023-03-17T01:20:05;11.90;93.20
32201;DHT22;18701;45.588;5.288;2023-03-17T01:22:32;11.80;93.10
32201;DHT22;18701;45.588;5.288;2023-03-17T01:24:57;11.90;92.80
32201;DHT22;18701;45.588;5.288;2023-03-17T01:27:23;11.90;92.80
32201;DHT22;18701;45.588;5.288;2023-03-17T01:29:53;11.80;92.80
32201;DHT22;18701;45.588;5.288;2023-03-17T01:32:19;11.90;92.80
32201;DHT22;18701;45.588;5.288;2023-03-17T01:34:45;12.10;92.50
32201;DHT22;18701;45.588;5.288;2023-03-17T01:37:11;11.90;92.60
32201;DHT22;18701;45.588;5.288;2023-03-17T01:39:39;12.00;92.30
32201;DHT22;18701;45.588;5.288;2023-03-17T01:42:05;11.90;92.00
32201;DHT22;18701;45.588;5.288;2023-03-17T01:44:31;11.80;91.60
32201;DHT22;18701;45.588;5.288;2023-03-17T01:46:58;12.00;91.80
32201;DHT22;18701;45.588;5.288;2023-03-17T01:49:36;12.00;91.50
32201;DHT22;18701;45.588;5.288;2023-03-17T01:52:15;12.00;91.70
32201;DHT22;18701;45.588;5.288;2023-03-17T01:55:05;11.90;91.30
32201;DHT22;18701;45.588;5.288;2023-03-17T01:57:43;12.00;91.00
32201;DHT22;18701;45.588;5.288;2023-03-17T02:00:14;11.90;90.80
32201;DHT22;18701;45.588;5.288;2023-03-17T02:02:43;12.00;90.70
32201;DHT22;18701;45.588;5.288;2023-03-17T02:05:12;11.90;90.70
32201;DHT22;18701;45.588;5.288;2023-03-17T02:07:39;11.90;90.70
32201;DHT22;18701;45.588;5.288;2023-03-17T02:10:07;11.90;90.90
32201;DHT22;18701;45.588;5.288;2023-03-17T02:12:34;11.90;90.70
32201;DHT22;18701;45.588;5.288;2023-03-17T02:15:00;11.90;90.70
32201;DHT22;18701;45.588;5.288;2023-03-17T02:17:27;11.90;90.50
32201;DHT22;18701;45.588;5.288;2023-03-17T02:19:53;11.80;90.70
32201;DHT22;18701;45.588;5.288;2023-03-17T02:22:19;12.00;90.50
32201;DHT22;18701;45.588;5.288;2023-03-17T02:24:50;11.90;90.20
32201;DHT22;18701;45.588;5.288;2023-03-17T02:27:21;11.90;90.90
32201;DHT22;18701;45.588;5.288;2023-03-17T02:29:48;11.90;90.40
32201;DHT22;18701;45.588;5.288;2023-03-17T02:32:16;11.90;90.60
32201;DHT22;18701;45.588;5.288;2023-03-17T02:34:44;11.70;91.00
32201;DHT22;18701;45.588;5.288;2023-03-17T02:37:10;11.60;90.80
32201;DHT22;18701;45.588;5.288;2023-03-17T02:39:38;11.60;90.90
32201;DHT22;18701;45.588;5.288;2023-03-17T02:42:05;11.50;91.10
32201;DHT22;18701;45.588;5.288;2023-03-17T02:44:31;11.60;90.90
32201;DHT22;18701;45.588;5.288;2023-03-17T02:46:57;11.50;91.10
32201;DHT22;18701;45.588;5.288;2023-03-17T02:49:24;11.60;91.50
32201;DHT22;18701;45.588;5.288;2023-03-17T02:51:50;11.50;91.30
32201;DHT22;18701;45.588;5.288;2023-03-17T02:54:16;11.40;91.20
32201;DHT22;18701;45.588;5.288;2023-03-17T02:56:42;11.30;91.40
32201;DHT22;18701;45.588;5.288;2023-03-17T02:59:08;11.40;91.30
32201;DHT22;18701;45.588;5.288;2023-03-17T03:01:34;11.30;91.40
32201;DHT22;18701;45.588;5.288;2023-03-17T03:04:00;11.30;91.40
32201;DHT22;18701;45.588;5.288;2023-03-17T03:06:25;11.20;91.50
32201;DHT22;18701;45.588;5.288;2023-03-17T03:08:51;11.20;91.70
32201;DHT22;18701;45.588;5.288;2023-03-17T03:11:18;11.10;91.50
32201;DHT22;18701;45.588;5.288;2023-03-17T03:13:44;11.00;91.70
32201;DHT22;18701;45.588;5.288;2023-03-17T03:16:14;11.10;91.70
32201;DHT22;18701;45.588;5.288;2023-03-17T03:18:39;11.10;91.80
32201;DHT22;18701;45.588;5.288;2023-03-17T03:21:05;11.10;91.70
32201;DHT22;18701;45.588;5.288;2023-03-17T03:23:31;11.10;91.90
32201;DHT22;18701;45.588;5.288;2023-03-17T03:25:57;11.10;91.80
32201;DHT22;18701;45.588;5.288;2023-03-17T03:28:22;11.00;92.10
32201;DHT22;18701;45.588;5.288;2023-03-17T03:30:49;10.90;92.20
32201;DHT22;18701;45.588;5.288;2023-03-17T03:33:15;11.00;92.20
32201;DHT22;18701;45.588;5.288;2023-03-17T03:35:42;10.90;92.30
32201;DHT22;18701;45.588;5.288;2023-03-17T03:38:09;11.00;92.40
32201;DHT22;18701;45.588;5.288;2023-03-17T03:40:35;11.00;92.10
32201;DHT22;18701;45.588;5.288;2023-03-17T03:43:01;10.90;91.90
32201;DHT22;18701;45.588;5.288;2023-03-17T03:45:27;11.00;92.10
32201;DHT22;18701;45.588;5.288;2023-03-17T03:47:53;11.00;92.20
32201;DHT22;18701;45.588;5.288;2023-03-17T03:50:19;11.00;92.30
32201;DHT22;18701;45.588;5.288;2023-03-17T03:52:44;11.00;92.10
32201;DHT22;18701;45.588;5.288;2023-03-17T03:55:11;11.00;92.20
32201;DHT22;18701;45.588;5.288;2023-03-17T03:57:36;10.90;92.40
32201;DHT22;18701;45.588;5.288;2023-03-17T04:00:03;10.90;92.70
32201;DHT22;18701;45.588;5.288;2023-03-17T04:02:31;10.90;92.40
32201;DHT22;18701;45.588;5.288;2023-03-17T04:04:56;11.00;92.20
32201;DHT22;18701;45.588;5.288;2023-03-17T04:07:22;10.90;92.40
32201;DHT22;18701;45.588;5.288;2023-03-17T04:09:48;10.90;92.40
32201;DHT22;18701;45.588;5.288;2023-03-17T04:12:17;10.90;92.60
32201;DHT22;18701;45.588;5.288;2023-03-17T04:14:43;11.00;92.40
32201;DHT22;18701;45.588;5.288;2023-03-17T04:17:10;10.80;91.70
32201;DHT22;18701;45.588;5.288;2023-03-17T04:19:37;11.00;91.90
32201;DHT22;18701;45.588;5.288;2023-03-17T04:22:04;10.90;91.80
32201;DHT22;18701;45.588;5.288;2023-03-17T04:24:29;10.90;92.10
32201;DHT22;18701;45.588;5.288;2023-03-17T04:26:55;10.90;92.10
32201;DHT22;18701;45.588;5.288;2023-03-17T04:29:21;10.90;92.00
32201;DHT22;18701;45.588;5.288;2023-03-17T04:31:47;10.90;91.40
32201;DHT22;18701;45.588;5.288;2023-03-17T04:34:14;10.90;91.60
32201;DHT22;18701;45.588;5.288;2023-03-17T04:36:41;10.90;91.90
32201;DHT22;18701;45.588;5.288;2023-03-17T04:39:07;10.80;91.90
32201;DHT22;18701;45.588;5.288;2023-03-17T04:41:33;10.90;92.10
32201;DHT22;18701;45.588;5.288;2023-03-17T04:43:59;10.80;92.40
32201;DHT22;18701;45.588;5.288;2023-03-17T04:46:24;10.70;92.10
32201;DHT22;18701;45.588;5.288;2023-03-17T04:48:50;10.70;92.10
32201;DHT22;18701;45.588;5.288;2023-03-17T04:51:16;10.80;91.90
32201;DHT22;18701;45.588;5.288;2023-03-17T04:53:42;10.70;91.90
32201;DHT22;18701;45.588;5.288;2023-03-17T04:56:09;10.80;91.80
32201;DHT22;18701;45.588;5.288;2023-03-17T04:58:35;10.80;91.90
32201;DHT22;18701;45.588;5.288;2023-03-17T05:01:01;10.80;92.10
32201;DHT22;18701;45.588;5.288;2023-03-17T05:03:28;10.70;91.80
32201;DHT22;18701;45.588;5.288;2023-03-17T05:05:56;10.70;91.80
32201;DHT22;18701;45.588;5.288;2023-03-17T05:08:22;10.70;92.20
32201;DHT22;18701;45.588;5.288;2023-03-17T05:10:48;10.70;91.70
32201;DHT22;18701;45.588;5.288;2023-03-17T05:13:13;10.80;91.60
32201;DHT22;18701;45.588;5.288;2023-03-17T05:15:45;10.60;92.00
32201;DHT22;18701;45.588;5.288;2023-03-17T05:18:11;10.70;91.90
32201;DHT22;18701;45.588;5.288;2023-03-17T05:20:37;10.70;91.90
32201;DHT22;18701;45.588;5.288;2023-03-17T05:23:02;10.70;92.20
32201;DHT22;18701;45.588;5.288;2023-03-17T05:25:28;10.60;92.00
32201;DHT22;18701;45.588;5.288;2023-03-17T05:27:53;10.60;92.10
32201;DHT22;18701;45.588;5.288;2023-03-17T05:30:19;10.60;92.30
32201;DHT22;18701;45.588;5.288;2023-03-17T05:32:45;10.60;92.30
32201;DHT22;18701;45.588;5.288;2023-03-17T05:35:11;10.60;92.10
32201;DHT22;18701;45.588;5.288;2023-03-17T05:37:37;10.70;92.10
32201;DHT22;18701;45.588;5.288;2023-03-17T05:40:03;10.70;92.20
32201;DHT22;18701;45.588;5.288;2023-03-17T05:42:29;10.80;92.00
32201;DHT22;18701;45.588;5.288;2023-03-17T05:44:54;10.70;92.00
32201;DHT22;18701;45.588;5.288;2023-03-17T05:47:20;10.60;92.20
32201;DHT22;18701;45.588;5.288;2023-03-17T05:49:47;10.60;92.30
32201;DHT22;18701;45.588;5.288;2023-03-17T05:52:12;10.70;92.30
32201;DHT22;18701;45.588;5.288;2023-03-17T05:54:38;10.60;92.20
32201;DHT22;18701;45.588;5.288;2023-03-17T05:57:04;10.60;92.30
32201;DHT22;18701;45.588;5.288;2023-03-17T05:59:29;10.60;92.40
32201;DHT22;18701;45.588;5.288;2023-03-17T06:01:55;10.60;92.60
32201;DHT22;18701;45.588;5.288;2023-03-17T06:04:21;10.70;92.40
32201;DHT22;18701;45.588;5.288;2023-03-17T06:06:46;10.60;92.20
32201;DHT22;18701;45.588;5.288;2023-03-17T06:09:13;10.70;92.00
32201;DHT22;18701;45.588;5.288;2023-03-17T06:11:39;10.70;92.20
32201;DHT22;18701;45.588;5.288;2023-03-17T06:14:06;10.50;92.30
32201;DHT22;18701;45.588;5.288;2023-03-17T06:16:31;10.50;92.60
32201;DHT22;18701;45.588;5.288;2023-03-17T06:18:57;10.60;92.40
32201;DHT22;18701;45.588;5.288;2023-03-17T06:21:23;10.50;92.30
32201;DHT22;18701;45.588;5.288;2023-03-17T06:23:49;10.60;91.90
32201;DHT22;18701;45.588;5.288;2023-03-17T06:26:14;10.70;92.20
32201;DHT22;18701;45.588;5.288;2023-03-17T06:28:43;10.70;92.10
32201;DHT22;18701;45.588;5.288;2023-03-17T06:31:09;10.60;92.00
32201;DHT22;18701;45.588;5.288;2023-03-17T06:33:35;10.60;92.00
32201;DHT22;18701;45.588;5.288;2023-03-17T06:36:01;10.60;91.80
32201;DHT22;18701;45.588;5.288;2023-03-17T06:38:27;10.60;91.70
32201;DHT22;18701;45.588;5.288;2023-03-17T06:40:53;10.70;91.70
32201;DHT22;18701;45.588;5.288;2023-03-17T06:43:18;10.70;91.60
32201;DHT22;18701;45.588;5.288;2023-03-17T06:45:46;10.70;91.80
32201;DHT22;18701;45.588;5.288;2023-03-17T06:48:12;10.70;91.60
32201;DHT22;18701;45.588;5.288;2023-03-17T06:50:37;10.70;91.60
32201;DHT22;18701;45.588;5.288;2023-03-17T06:53:03;10.70;91.60
32201;DHT22;18701;45.588;5.288;2023-03-17T06:55:29;10.80;91.50
32201;DHT22;18701;45.588;5.288;2023-03-17T06:57:56;10.90;91.30
32201;DHT22;18701;45.588;5.288;2023-03-17T07:00:23;10.90;91.10
32201;DHT22;18701;45.588;5.288;2023-03-17T07:02:48;10.90;91.40
32201;DHT22;18701;45.588;5.288;2023-03-17T07:05:14;11.00;91.20
32201;DHT22;18701;45.588;5.288;2023-03-17T07:07:40;10.90;91.00
32201;DHT22;18701;45.588;5.288;2023-03-17T07:10:06;11.00;90.90
32201;DHT22;18701;45.588;5.288;2023-03-17T07:12:35;11.10;90.90
32201;DHT22;18701;45.588;5.288;2023-03-17T07:15:01;11.20;89.20
32201;DHT22;18701;45.588;5.288;2023-03-17T07:17:27;11.20;90.30
32201;DHT22;18701;45.588;5.288;2023-03-17T07:19:53;11.30;89.80
32201;DHT22;18701;45.588;5.288;2023-03-17T07:22:19;11.40;88.90
32201;DHT22;18701;45.588;5.288;2023-03-17T07:24:44;11.50;88.90
32201;DHT22;18701;45.588;5.288;2023-03-17T07:27:11;11.50;87.70
32201;DHT22;18701;45.588;5.288;2023-03-17T07:29:38;11.50;88.20
32201;DHT22;18701;45.588;5.288;2023-03-17T07:32:04;11.60;86.20
32201;DHT22;18701;45.588;5.288;2023-03-17T07:34:32;11.80;87.40
32201;DHT22;18701;45.588;5.288;2023-03-17T07:36:58;11.80;87.20
32201;DHT22;18701;45.588;5.288;2023-03-17T07:39:24;11.80;87.10
32201;DHT22;18701;45.588;5.288;2023-03-17T07:41:50;11.90;85.60
32201;DHT22;18701;45.588;5.288;2023-03-17T07:44:21;11.90;84.90
32201;DHT22;18701;45.588;5.288;2023-03-17T07:46:48;11.90;85.30
32201;DHT22;18701;45.588;5.288;2023-03-17T07:49:14;12.00;84.50
32201;DHT22;18701;45.588;5.288;2023-03-17T07:51:40;12.00;84.50
32201;DHT22;18701;45.588;5.288;2023-03-17T07:54:09;12.20;85.20
32201;DHT22;18701;45.588;5.288;2023-03-17T07:56:35;12.10;83.30
32201;DHT22;18701;45.588;5.288;2023-03-17T07:59:00;12.20;83.70
32201;DHT22;18701;45.588;5.288;2023-03-17T08:01:27;12.30;84.40
32201;DHT22;18701;45.588;5.288;2023-03-17T08:03:53;12.40;83.20
32201;DHT22;18701;45.588;5.288;2023-03-17T08:06:19;12.50;82.50
32201;DHT22;18701;45.588;5.288;2023-03-17T08:08:44;12.60;81.50
32201;DHT22;18701;45.588;5.288;2023-03-17T08:11:10;12.60;81.10
32201;DHT22;18701;45.588;5.288;2023-03-17T08:13:36;12.70;81.80
32201;DHT22;18701;45.588;5.288;2023-03-17T08:16:02;12.80;79.50
32201;DHT22;18701;45.588;5.288;2023-03-17T08:18:28;12.80;80.10
32201;DHT22;18701;45.588;5.288;2023-03-17T08:20:53;12.90;79.50
32201;DHT22;18701;45.588;5.288;2023-03-17T08:23:19;12.90;80.70
32201;DHT22;18701;45.588;5.288;2023-03-17T08:25:46;13.10;79.30
32201;DHT22;18701;45.588;5.288;2023-03-17T08:28:12;13.10;78.30
32201;DHT22;18701;45.588;5.288;2023-03-17T08:30:40;13.20;79.40
32201;DHT22;18701;45.588;5.288;2023-03-17T08:33:07;13.20;77.60
32201;DHT22;18701;45.588;5.288;2023-03-17T08:35:34;13.40;77.40
32201;DHT22;18701;45.588;5.288;2023-03-17T08:38:00;13.60;78.40
32201;DHT22;18701;45.588;5.288;2023-03-17T08:40:26;13.70;76.50
32201;DHT22;18701;45.588;5.288;2023-03-17T08:42:52;13.90;76.90
32201;DHT22;18701;45.588;5.288;2023-03-17T08:45:18;13.90;73.60
32201;DHT22;18701;45.588;5.288;2023-03-17T08:47:44;13.90;73.60
32201;DHT22;18701;45.588;5.288;2023-03-17T08:50:16;13.90;73.80
32201;DHT22;18701;45.588;5.288;2023-03-17T08:52:43;14.10;73.00
32201;DHT22;18701;45.588;5.288;2023-03-17T08:55:10;14.10;71.90
32201;DHT22;18701;45.588;5.288;2023-03-17T08:57:36;14.20;72.80
32201;DHT22;18701;45.588;5.288;2023-03-17T09:00:03;14.10;72.20
32201;DHT22;18701;45.588;5.288;2023-03-17T09:02:39;14.20;71.20
32201;DHT22;18701;45.588;5.288;2023-03-17T09:05:06;14.50;72.30
32201;DHT22;18701;45.588;5.288;2023-03-17T09:07:32;14.70;69.80
32201;DHT22;18701;45.588;5.288;2023-03-17T09:09:59;14.90;71.40
32201;DHT22;18701;45.588;5.288;2023-03-17T09:12:25;14.80;70.70
32201;DHT22;18701;45.588;5.288;2023-03-17T09:14:50;14.80;69.10
32201;DHT22;18701;45.588;5.288;2023-03-17T09:17:16;15.20;71.00
32201;DHT22;18701;45.588;5.288;2023-03-17T09:19:42;15.10;69.80
32201;DHT22;18701;45.588;5.288;2023-03-17T09:22:12;15.20;67.90
32201;DHT22;18701;45.588;5.288;2023-03-17T09:24:38;15.40;69.60
32201;DHT22;18701;45.588;5.288;2023-03-17T09:27:04;15.50;68.50
32201;DHT22;18701;45.588;5.288;2023-03-17T09:29:30;15.30;67.30
32201;DHT22;18701;45.588;5.288;2023-03-17T09:31:56;15.70;67.80
32201;DHT22;18701;45.588;5.288;2023-03-17T09:34:21;15.70;67.10
32201;DHT22;18701;45.588;5.288;2023-03-17T09:36:49;15.60;66.70
32201;DHT22;18701;45.588;5.288;2023-03-17T09:39:15;15.70;68.10
32201;DHT22;18701;45.588;5.288;2023-03-17T09:41:58;15.90;67.40
32201;DHT22;18701;45.588;5.288;2023-03-17T09:47:34;15.90;66.50
32201;DHT22;18701;45.588;5.288;2023-03-17T09:49:57;16.00;66.20
32201;DHT22;18701;45.588;5.288;2023-03-17T09:52:27;16.10;66.40
32201;DHT22;18701;45.588;5.288;2023-03-17T09:54:53;15.80;66.00
32201;DHT22;18701;45.588;5.288;2023-03-17T09:57:35;15.90;66.10
32201;DHT22;18701;45.588;5.288;2023-03-17T10:00:31;16.00;65.80
32201;DHT22;18701;45.588;5.288;2023-03-17T10:02:58;16.30;67.10
32201;DHT22;18701;45.588;5.288;2023-03-17T10:05:29;16.10;65.70
32201;DHT22;18701;45.588;5.288;2023-03-17T10:10:37;16.40;66.00
32201;DHT22;18701;45.588;5.288;2023-03-17T10:13:21;16.30;66.30
32201;DHT22;18701;45.588;5.288;2023-03-17T10:16:04;16.40;66.60
32201;DHT22;18701;45.588;5.288;2023-03-17T10:21:24;16.90;66.20
32201;DHT22;18701;45.588;5.288;2023-03-17T10:23:52;17.10;67.60
32201;DHT22;18701;45.588;5.288;2023-03-17T10:29:08;16.80;67.00
32201;DHT22;18701;45.588;5.288;2023-03-17T10:31:36;17.00;65.90
32201;DHT22;18701;45.588;5.288;2023-03-17T10:34:30;17.20;65.70
32201;DHT22;18701;45.588;5.288;2023-03-17T10:39:26;17.30;65.80
32201;DHT22;18701;45.588;5.288;2023-03-17T10:41:59;17.80;68.30
32201;DHT22;18701;45.588;5.288;2023-03-17T10:46:55;18.20;66.20
32201;DHT22;18701;45.588;5.288;2023-03-17T10:49:21;17.70;65.60
32201;DHT22;18701;45.588;5.288;2023-03-17T10:51:51;17.30;66.30
32201;DHT22;18701;45.588;5.288;2023-03-17T10:54:19;16.90;66.60
32201;DHT22;18701;45.588;5.288;2023-03-17T10:56:47;16.80;66.60
32201;DHT22;18701;45.588;5.288;2023-03-17T11:01:58;16.70;67.20
32201;DHT22;18701;45.588;5.288;2023-03-17T11:04:40;17.10;67.20
32201;DHT22;18701;45.588;5.288;2023-03-17T11:07:20;16.90;67.80
32201;DHT22;18701;45.588;5.288;2023-03-17T11:09:55;16.70;66.60
32201;DHT22;18701;45.588;5.288;2023-03-17T11:12:28;16.70;67.90
32201;DHT22;18701;45.588;5.288;2023-03-17T11:14:58;16.90;66.80
32201;DHT22;18701;45.588;5.288;2023-03-17T11:17:54;17.30;68.10
32201;DHT22;18701;45.588;5.288;2023-03-17T11:23:45;17.80;66.30
32201;DHT22;18701;45.588;5.288;2023-03-17T11:26:54;18.00;66.80
32201;DHT22;18701;45.588;5.288;2023-03-17T11:34:39;18.50;66.20
32201;DHT22;18701;45.588;5.288;2023-03-17T11:46:48;18.50;66.80
32201;DHT22;18701;45.588;5.288;2023-03-17T11:51:46;19.60;65.90
32201;DHT22;18701;45.588;5.288;2023-03-17T11:57:00;18.70;66.20
32201;DHT22;18701;45.588;5.288;2023-03-17T11:59:47;19.00;65.90
32201;DHT22;18701;45.588;5.288;2023-03-17T12:05:16;19.80;67.00
32201;DHT22;18701;45.588;5.288;2023-03-17T12:07:46;20.00;66.50
32201;DHT22;18701;45.588;5.288;2023-03-17T12:10:29;20.00;65.20
32201;DHT22;18701;45.588;5.288;2023-03-17T12:13:03;19.00;66.60
32201;DHT22;18701;45.588;5.288;2023-03-17T12:15:35;18.80;67.00
32201;DHT22;18701;45.588;5.288;2023-03-17T12:18:12;18.30;67.40
32201;DHT22;18701;45.588;5.288;2023-03-17T12:20:50;18.40;67.60
32201;DHT22;18701;45.588;5.288;2023-03-17T12:26:07;19.50;67.70
32201;DHT22;18701;45.588;5.288;2023-03-17T12:28:43;19.30;67.90
32201;DHT22;18701;45.588;5.288;2023-03-17T12:31:14;18.90;67.80
32201;DHT22;18701;45.588;5.288;2023-03-17T12:36:36;19.50;67.50
32201;DHT22;18701;45.588;5.288;2023-03-17T12:39:08;19.50;67.20
32201;DHT22;18701;45.588;5.288;2023-03-17T12:55:50;18.30;69.80
32201;DHT22;18701;45.588;5.288;2023-03-17T12:58:37;18.90;69.20
32201;DHT22;18701;45.588;5.288;2023-03-17T13:06:44;19.60;69.20
32201;DHT22;18701;45.588;5.288;2023-03-17T13:09:46;19.50;69.70
32201;DHT22;18701;45.588;5.288;2023-03-17T13:17:47;19.00;70.80
32201;DHT22;18701;45.588;5.288;2023-03-17T13:20:18;19.40;70.10
32201;DHT22;18701;45.588;5.288;2023-03-17T13:23:11;19.50;70.90
32201;DHT22;18701;45.588;5.288;2023-03-17T13:38:30;20.00;69.50
32201;DHT22;18701;45.588;5.288;2023-03-17T13:41:15;20.10;69.20
32201;DHT22;18701;45.588;5.288;2023-03-17T13:46:38;19.70;70.00
32201;DHT22;18701;45.588;5.288;2023-03-17T13:51:50;20.60;69.20
32201;DHT22;18701;45.588;5.288;2023-03-17T13:56:53;19.60;69.20
32201;DHT22;18701;45.588;5.288;2023-03-17T14:00:38;19.40;70.20
32201;DHT22;18701;45.588;5.288;2023-03-17T14:02:39;19.90;70.10
32201;DHT22;18701;45.588;5.288;2023-03-17T14:05:27;19.30;70.30
32201;DHT22;18701;45.588;5.288;2023-03-17T14:07:58;19.60;70.40
32201;DHT22;18701;45.588;5.288;2023-03-17T14:10:27;19.00;70.70
32201;DHT22;18701;45.588;5.288;2023-03-17T14:13:02;18.80;71.10
32201;DHT22;18701;45.588;5.288;2023-03-17T14:15:49;19.00;71.00
32201;DHT22;18701;45.588;5.288;2023-03-17T14:21:32;18.30;71.70
32201;DHT22;18701;45.588;5.288;2023-03-17T14:24:00;18.40;72.40
32201;DHT22;18701;45.588;5.288;2023-03-17T14:26:28;18.20;72.40
32201;DHT22;18701;45.588;5.288;2023-03-17T14:28:58;17.80;73.40
32201;DHT22;18701;45.588;5.288;2023-03-17T14:31:26;17.70;73.30
32201;DHT22;18701;45.588;5.288;2023-03-17T14:33:57;17.90;73.70
32201;DHT22;18701;45.588;5.288;2023-03-17T14:36:25;17.50;74.20
32201;DHT22;18701;45.588;5.288;2023-03-17T14:38:55;17.30;74.90
32201;DHT22;18701;45.588;5.288;2023-03-17T14:41:22;17.40;74.40
32201;DHT22;18701;45.588;5.288;2023-03-17T14:43:49;17.50;74.30
32201;DHT22;18701;45.588;5.288;2023-03-17T14:46:24;17.70;74.80
32201;DHT22;18701;45.588;5.288;2023-03-17T14:51:33;16.90;75.50
32201;DHT22;18701;45.588;5.288;2023-03-17T14:54:13;16.70;75.90
32201;DHT22;18701;45.588;5.288;2023-03-17T14:56:50;16.80;76.30
32201;DHT22;18701;45.588;5.288;2023-03-17T14:59:29;16.90;75.60
32201;DHT22;18701;45.588;5.288;2023-03-17T15:01:58;17.00;75.80
32201;DHT22;18701;45.588;5.288;2023-03-17T15:04:30;17.00;75.80
32201;DHT22;18701;45.588;5.288;2023-03-17T15:07:03;16.90;76.10
32201;DHT22;18701;45.588;5.288;2023-03-17T15:09:37;17.10;76.40
32201;DHT22;18701;45.588;5.288;2023-03-17T15:16:55;17.00;76.10
32201;DHT22;18701;45.588;5.288;2023-03-17T15:19:27;17.00;76.10
32201;DHT22;18701;45.588;5.288;2023-03-17T15:21:55;16.80;76.60
32201;DHT22;18701;45.588;5.288;2023-03-17T15:24:39;16.90;76.50
32201;DHT22;18701;45.588;5.288;2023-03-17T15:27:16;17.20;75.90
32201;DHT22;18701;45.588;5.288;2023-03-17T15:29:42;17.20;76.30
32201;DHT22;18701;45.588;5.288;2023-03-17T15:32:14;17.10;76.50
32201;DHT22;18701;45.588;5.288;2023-03-17T15:34:43;17.00;75.90
32201;DHT22;18701;45.588;5.288;2023-03-17T15:37:30;17.00;75.90
32201;DHT22;18701;45.588;5.288;2023-03-17T15:39:56;16.90;76.00
32201;DHT22;18701;45.588;5.288;2023-03-17T15:42:31;16.90;76.00
32201;DHT22;18701;45.588;5.288;2023-03-17T15:44:57;17.10;75.90
32201;DHT22;18701;45.588;5.288;2023-03-17T15:47:27;17.20;76.00
32201;DHT22;18701;45.588;5.288;2023-03-17T15:50:01;17.20;76.30
32201;DHT22;18701;45.588;5.288;2023-03-17T15:52:27;16.90;76.10
32201;DHT22;18701;45.588;5.288;2023-03-17T15:54:56;17.10;76.80
32201;DHT22;18701;45.588;5.288;2023-03-17T15:57:22;16.80;76.20
32201;DHT22;18701;45.588;5.288;2023-03-17T15:59:49;16.90;77.10
32201;DHT22;18701;45.588;5.288;2023-03-17T16:04:49;16.80;76.50
32201;DHT22;18701;45.588;5.288;2023-03-17T16:07:15;16.80;76.70
32201;DHT22;18701;45.588;5.288;2023-03-17T16:09:41;16.90;76.50
32201;DHT22;18701;45.588;5.288;2023-03-17T16:12:10;16.80;76.80
32201;DHT22;18701;45.588;5.288;2023-03-17T16:14:36;16.80;76.30
32201;DHT22;18701;45.588;5.288;2023-03-17T16:17:03;16.80;76.60
32201;DHT22;18701;45.588;5.288;2023-03-17T16:19:29;16.40;77.10
32201;DHT22;18701;45.588;5.288;2023-03-17T16:21:55;16.30;77.10
32201;DHT22;18701;45.588;5.288;2023-03-17T16:24:23;16.30;76.90
32201;DHT22;18701;45.588;5.288;2023-03-17T16:26:50;16.10;77.30
32201;DHT22;18701;45.588;5.288;2023-03-17T16:29:17;15.90;77.30
32201;DHT22;18701;45.588;5.288;2023-03-17T16:31:46;16.00;77.90
32201;DHT22;18701;45.588;5.288;2023-03-17T16:34:18;15.70;78.20
32201;DHT22;18701;45.588;5.288;2023-03-17T16:36:45;15.70;78.80
32201;DHT22;18701;45.588;5.288;2023-03-17T16:39:15;15.80;77.90
32201;DHT22;18701;45.588;5.288;2023-03-17T16:41:44;15.80;78.30
32201;DHT22;18701;45.588;5.288;2023-03-17T16:44:10;15.90;78.10
32201;DHT22;18701;45.588;5.288;2023-03-17T16:46:37;15.90;78.20
32201;DHT22;18701;45.588;5.288;2023-03-17T16:49:04;15.70;78.10
32201;DHT22;18701;45.588;5.288;2023-03-17T16:51:29;15.80;78.10
32201;DHT22;18701;45.588;5.288;2023-03-17T16:53:55;15.90;78.30
32201;DHT22;18701;45.588;5.288;2023-03-17T16:56:21;15.70;78.50
32201;DHT22;18701;45.588;5.288;2023-03-17T16:58:49;15.70;78.40
32201;DHT22;18701;45.588;5.288;2023-03-17T17:01:20;15.70;78.20
32201;DHT22;18701;45.588;5.288;2023-03-17T17:03:47;15.60;78.40
32201;DHT22;18701;45.588;5.288;2023-03-17T17:06:13;15.60;79.40
32201;DHT22;18701;45.588;5.288;2023-03-17T17:08:43;15.50;79.00
32201;DHT22;18701;45.588;5.288;2023-03-17T17:11:10;15.50;79.20
32201;DHT22;18701;45.588;5.288;2023-03-17T17:13:38;15.60;79.10
32201;DHT22;18701;45.588;5.288;2023-03-17T17:16:04;15.70;79.00
32201;DHT22;18701;45.588;5.288;2023-03-17T17:18:30;15.60;79.40
32201;DHT22;18701;45.588;5.288;2023-03-17T17:20:56;15.70;79.30
32201;DHT22;18701;45.588;5.288;2023-03-17T17:23:24;15.60;78.90
32201;DHT22;18701;45.588;5.288;2023-03-17T17:25:50;15.50;79.00
32201;DHT22;18701;45.588;5.288;2023-03-17T17:28:19;15.50;79.60
32201;DHT22;18701;45.588;5.288;2023-03-17T17:30:45;15.40;79.20